Time;durP1;ratioP1;P1;durP2;ratioP2;P2;SDS_P1;SDS_P2;PMS_P1;PMS_P2;Temp;Humidity;BMP_temperature;BMP_pressure;BME280_temperature;BME280_humidity;BME280_pressure;Samples;Min_cycle;Max_cycle;Signal;HPM_P1;HPM_P2
2023/12/30 00:01:47;;;;;;;1.88;0.90;;;9.10;99.90;;;;;;5018455;28;20035;-62
2023/12/30 00:04:13;;;;;;;3.00;0.80;;;9.10;99.90;;;;;;5020012;28;20482;-62
2023/12/30 00:06:39;;;;;;;1.42;0.80;;;9.00;99.90;;;;;;5015099;28;20049;-63
2023/12/30 00:09:04;;;;;;;1.45;0.90;;;8.90;99.90;;;;;;5020053;28;20022;-62
2023/12/30 00:11:30;;;;;;;1.27;0.80;;;8.90;99.90;;;;;;5017372;28;20126;-61
2023/12/30 00:13:56;;;;;;;1.65;0.80;;;9.00;99.90;;;;;;5021590;28;20379;-62
2023/12/30 00:16:21;;;;;;;1.67;0.68;;;9.00;99.90;;;;;;5021081;28;20589;-62
2023/12/30 00:18:47;;;;;;;1.55;0.73;;;9.00;99.90;;;;;;5017896;28;20445;-61
2023/12/30 00:21:19;;;;;;;0.93;0.70;;;8.90;99.90;;;;;;5019462;28;20025;-62
2023/12/30 00:23:44;;;;;;;5.00;1.25;;;8.80;99.90;;;;;;5016949;28;20112;-62
2023/12/30 00:26:30;;;;;;;2.35;0.77;;;8.60;99.90;;;;;;5023419;28;20121;-62
2023/12/30 00:28:56;;;;;;;1.70;0.85;;;8.50;99.90;;;;;;5018817;28;20737;-63
2023/12/30 00:31:23;;;;;;;1.38;0.90;;;8.50;99.90;;;;;;5017029;28;20036;-62
2023/12/30 00:33:49;;;;;;;1.25;0.70;;;8.50;99.90;;;;;;5019925;28;20026;-61
2023/12/30 00:36:15;;;;;;;1.52;0.90;;;8.40;99.90;;;;;;5018962;28;20033;-61
2023/12/30 00:38:41;;;;;;;3.20;0.90;;;8.40;99.90;;;;;;5019047;28;20095;-62
2023/12/30 00:41:07;;;;;;;2.42;0.90;;;8.30;99.90;;;;;;5020176;28;20497;-62
2023/12/30 00:43:32;;;;;;;3.70;0.93;;;8.30;99.90;;;;;;5018650;28;20052;-62
2023/12/30 00:45:58;;;;;;;1.52;0.70;;;8.30;99.90;;;;;;5018447;28;20022;-62
2023/12/30 00:48:24;;;;;;;2.33;0.90;;;8.30;99.90;;;;;;5018851;28;20034;-64
2023/12/30 00:50:49;;;;;;;1.83;0.90;;;8.30;99.90;;;;;;5015266;28;20101;-64
2023/12/30 00:53:15;;;;;;;3.92;0.80;;;8.30;99.90;;;;;;5020592;28;20381;-62
2023/12/30 00:55:40;;;;;;;2.08;0.90;;;8.30;99.90;;;;;;5017637;28;20407;-62
2023/12/30 00:58:06;;;;;;;2.10;0.90;;;8.30;99.90;;;;;;5020352;28;20448;-63
2023/12/30 01:00:32;;;;;;;1.38;0.80;;;8.20;99.90;;;;;;5021828;28;20117;-63
2023/12/30 01:02:57;;;;;;;0.85;0.75;;;8.20;99.90;;;;;;5019140;28;20025;-62
2023/12/30 01:05:23;;;;;;;1.88;0.98;;;8.10;99.90;;;;;;5020696;28;20033;-62
2023/12/30 01:07:48;;;;;;;1.40;0.85;;;8.10;99.90;;;;;;5016782;28;20034;-62
2023/12/30 01:10:17;;;;;;;1.10;0.80;;;8.10;99.90;;;;;;5015996;28;20029;-62
2023/12/30 01:12:43;;;;;;;4.68;0.80;;;8.10;99.90;;;;;;5020944;28;20042;-62
2023/12/30 01:15:09;;;;;;;2.05;1.00;;;8.10;99.90;;;;;;5018268;28;20037;-61
2023/12/30 01:17:35;;;;;;;2.42;0.70;;;8.10;99.90;;;;;;5019807;28;20088;-63
2023/12/30 01:20:01;;;;;;;1.70;0.90;;;8.20;99.90;;;;;;5019185;28;20597;-63
2023/12/30 01:22:27;;;;;;;2.90;1.00;;;8.30;99.90;;;;;;5017779;28;20523;-62
2023/12/30 01:24:52;;;;;;;0.98;0.82;;;8.30;99.90;;;;;;5020332;28;20022;-62
2023/12/30 01:27:18;;;;;;;2.30;0.77;;;8.30;99.90;;;;;;5020848;28;20018;-62
2023/12/30 01:29:44;;;;;;;1.20;1.00;;;8.40;99.90;;;;;;5021017;28;20030;-61
2023/12/30 01:32:09;;;;;;;1.95;0.90;;;8.40;99.90;;;;;;5021507;28;20104;-63
2023/12/30 01:34:35;;;;;;;0.90;0.60;;;8.50;99.90;;;;;;5018534;28;20045;-61
2023/12/30 01:37:01;;;;;;;1.30;0.90;;;8.50;99.90;;;;;;5024819;28;20048;-62
2023/12/30 01:39:27;;;;;;;1.13;0.82;;;8.50;99.90;;;;;;5024227;28;20038;-62
2023/12/30 01:41:52;;;;;;;1.35;0.80;;;8.50;99.90;;;;;;5020910;28;20113;-62
2023/12/30 01:44:18;;;;;;;2.05;0.90;;;8.50;99.90;;;;;;5025534;28;20037;-61
2023/12/30 01:46:44;;;;;;;1.40;0.80;;;8.40;99.90;;;;;;5020859;28;20046;-62
2023/12/30 01:49:11;;;;;;;1.23;0.75;;;8.40;99.90;;;;;;5020544;28;20033;-62
2023/12/30 01:51:37;;;;;;;1.42;0.93;;;8.30;99.90;;;;;;5022468;28;20126;-62
2023/12/30 01:54:04;;;;;;;1.60;0.80;;;8.20;99.90;;;;;;5023071;28;20117;-63
2023/12/30 01:56:31;;;;;;;1.58;0.80;;;8.10;99.90;;;;;;5019114;28;20156;-62
2023/12/30 01:58:59;;;;;;;2.50;0.80;;;8.10;99.90;;;;;;5022104;28;20445;-62
2023/12/30 02:01:28;;;;;;;1.55;0.80;;;8.10;99.90;;;;;;5021672;28;20025;-62
2023/12/30 02:03:55;;;;;;;4.35;1.35;;;8.10;99.90;;;;;;5019325;28;20036;-63
2023/12/30 02:06:20;;;;;;;0.70;0.70;;;8.20;99.90;;;;;;5022017;28;20040;-62
2023/12/30 02:08:47;;;;;;;2.05;0.80;;;8.30;99.90;;;;;;5019680;28;20034;-63
2023/12/30 02:11:14;;;;;;;2.00;0.70;;;8.30;99.90;;;;;;5021463;28;20037;-63
2023/12/30 02:13:43;;;;;;;2.63;0.80;;;8.40;99.90;;;;;;5020578;28;20053;-62
2023/12/30 02:16:09;;;;;;;2.92;1.27;;;8.40;99.90;;;;;;5020600;28;20020;-62
2023/12/30 02:18:35;;;;;;;6.22;1.65;;;8.40;99.90;;;;;;5022586;28;20029;-62
2023/12/30 02:21:00;;;;;;;1.88;1.10;;;8.30;99.90;;;;;;5020973;28;20484;-61
2023/12/30 02:23:26;;;;;;;2.35;1.08;;;8.40;99.90;;;;;;5023707;28;20038;-62
2023/12/30 02:25:51;;;;;;;4.20;1.38;;;8.40;99.90;;;;;;5021684;28;20109;-61
2023/12/30 02:28:17;;;;;;;6.03;1.00;;;8.40;99.90;;;;;;5020897;28;20270;-61
2023/12/30 02:30:43;;;;;;;2.20;0.85;;;8.50;99.90;;;;;;5022857;28;20421;-62
2023/12/30 02:33:08;;;;;;;1.48;0.95;;;8.50;99.90;;;;;;5020809;28;20109;-61
2023/12/30 02:35:34;;;;;;;2.28;1.45;;;8.60;99.90;;;;;;5022626;28;20029;-62
2023/12/30 02:38:00;;;;;;;3.40;1.10;;;8.60;99.90;;;;;;5021064;28;20037;-62
2023/12/30 02:40:26;;;;;;;1.42;1.00;;;8.60;99.90;;;;;;5022449;28;20105;-62
2023/12/30 02:42:52;;;;;;;0.82;0.70;;;8.60;99.90;;;;;;5020107;28;20113;-61
2023/12/30 02:45:17;;;;;;;1.60;0.73;;;8.60;99.90;;;;;;5027935;28;20037;-62
2023/12/30 02:47:43;;;;;;;1.40;1.17;;;8.60;99.90;;;;;;5018274;28;20076;-61
2023/12/30 02:50:09;;;;;;;5.32;0.90;;;8.60;99.90;;;;;;5018631;28;20466;-60
2023/12/30 02:52:35;;;;;;;1.77;1.05;;;8.60;99.90;;;;;;5021324;28;20121;-64
2023/12/30 02:55:01;;;;;;;1.15;0.93;;;8.60;99.90;;;;;;5022567;28;20572;-61
2023/12/30 02:57:27;;;;;;;1.30;0.73;;;8.60;99.90;;;;;;5021555;28;20048;-61
2023/12/30 02:59:53;;;;;;;1.20;0.90;;;8.60;99.90;;;;;;5021167;28;20038;-61
2023/12/30 03:02:18;;;;;;;1.98;1.10;;;8.60;99.90;;;;;;5020236;28;20037;-60
2023/12/30 03:04:44;;;;;;;2.47;0.88;;;8.60;99.90;;;;;;5018429;28;20517;-62
2023/12/30 03:07:09;;;;;;;3.60;1.75;;;8.70;99.90;;;;;;5016275;28;20041;-61
2023/12/30 03:09:35;;;;;;;1.63;0.60;;;8.70;99.90;;;;;;5020181;28;20125;-63
2023/12/30 03:12:04;;;;;;;1.60;0.60;;;8.60;99.90;;;;;;5020740;28;20030;-62
2023/12/30 03:14:29;;;;;;;3.63;0.77;;;8.60;99.90;;;;;;5018437;28;20112;-61
2023/12/30 03:16:55;;;;;;;2.78;0.80;;;8.70;99.90;;;;;;5019340;28;20072;-62
2023/12/30 03:19:20;;;;;;;4.38;1.52;;;8.70;99.90;;;;;;5017989;28;20550;-62
2023/12/30 03:21:47;;;;;;;1.52;0.80;;;8.70;99.90;;;;;;5017795;28;20449;-62
2023/12/30 03:24:13;;;;;;;1.27;0.88;;;8.70;99.90;;;;;;5020403;28;20402;-61
2023/12/30 03:26:38;;;;;;;2.15;0.88;;;8.70;99.90;;;;;;5019322;28;20030;-62
2023/12/30 03:29:04;;;;;;;2.35;0.70;;;8.70;99.90;;;;;;5021482;28;20033;-61
2023/12/30 03:31:29;;;;;;;0.90;0.80;;;8.70;99.90;;;;;;5020821;28;20032;-61
2023/12/30 03:33:56;;;;;;;1.83;0.80;;;8.70;99.90;;;;;;5022767;28;20043;-62
2023/12/30 03:36:22;;;;;;;2.47;1.55;;;8.70;99.90;;;;;;5019363;28;20108;-62
2023/12/30 03:38:48;;;;;;;2.88;1.50;;;8.70;99.90;;;;;;5019734;28;20037;-61
2023/12/30 03:41:14;;;;;;;3.53;0.70;;;8.70;99.90;;;;;;5017781;28;20021;-61
2023/12/30 03:43:40;;;;;;;3.88;1.35;;;8.70;99.90;;;;;;5020393;28;20067;-62
2023/12/30 03:46:06;;;;;;;1.45;1.30;;;8.60;99.90;;;;;;5020388;28;20017;-62
2023/12/30 03:48:32;;;;;;;2.55;0.70;;;8.60;99.90;;;;;;5018717;28;20029;-61
2023/12/30 03:50:58;;;;;;;1.05;0.75;;;8.60;99.90;;;;;;5020831;28;20045;-61
2023/12/30 03:53:23;;;;;;;1.27;1.02;;;8.50;99.90;;;;;;5017881;28;20033;-62
2023/12/30 03:55:49;;;;;;;1.15;0.60;;;8.40;99.90;;;;;;5018696;28;20038;-61
2023/12/30 03:58:14;;;;;;;1.40;0.60;;;8.50;99.90;;;;;;5021954;28;20489;-62
2023/12/30 04:00:40;;;;;;;3.45;1.42;;;8.50;99.90;;;;;;5020808;28;20409;-61
2023/12/30 04:03:06;;;;;;;2.40;0.68;;;8.50;99.90;;;;;;5016337;28;20052;-64
2023/12/30 04:05:31;;;;;;;1.73;0.90;;;8.50;99.90;;;;;;5019982;28;20092;-63
2023/12/30 04:07:57;;;;;;;5.07;0.82;;;8.50;99.90;;;;;;5018022;28;20738;-62
2023/12/30 04:10:23;;;;;;;2.72;0.65;;;8.60;99.90;;;;;;5019227;28;20029;-61
2023/12/30 04:12:49;;;;;;;3.78;0.80;;;8.60;99.90;;;;;;5021627;28;20469;-61
2023/12/30 04:15:15;;;;;;;2.95;0.90;;;8.60;99.90;;;;;;5017324;28;20037;-62
2023/12/30 04:17:40;;;;;;;6.45;2.10;;;8.60;99.90;;;;;;5020257;28;20061;-62
2023/12/30 04:20:06;;;;;;;1.88;0.68;;;8.50;99.90;;;;;;5018536;28;20029;-63
2023/12/30 04:22:32;;;;;;;1.58;0.60;;;8.40;99.90;;;;;;5020919;28;20021;-61
2023/12/30 04:24:58;;;;;;;2.50;0.60;;;8.40;99.90;;;;;;5017366;28;20152;-61
2023/12/30 04:27:23;;;;;;;1.65;0.70;;;8.40;99.90;;;;;;5021586;28;20081;-60
2023/12/30 04:29:49;;;;;;;3.65;0.85;;;8.40;99.90;;;;;;5017782;28;20030;-61
2023/12/30 04:32:15;;;;;;;2.42;0.80;;;8.40;99.90;;;;;;5021153;28;20394;-62
2023/12/30 04:34:40;;;;;;;1.92;0.80;;;8.40;99.90;;;;;;5016895;28;20041;-63
2023/12/30 04:37:06;;;;;;;1.13;0.93;;;8.40;99.90;;;;;;5019124;28;20429;-61
2023/12/30 04:39:32;;;;;;;1.73;0.75;;;8.40;99.90;;;;;;5018965;28;20541;-60
2023/12/30 04:41:57;;;;;;;1.42;0.77;;;8.50;99.90;;;;;;5020987;28;20033;-61
2023/12/30 04:44:23;;;;;;;2.63;0.80;;;8.60;99.90;;;;;;5017919;28;20079;-62
2023/12/30 04:46:48;;;;;;;1.85;0.77;;;8.60;99.90;;;;;;5017220;28;20030;-61
2023/12/30 04:49:14;;;;;;;1.95;0.80;;;8.70;99.90;;;;;;5019919;28;20676;-61
2023/12/30 04:51:40;;;;;;;3.08;0.93;;;8.70;99.90;;;;;;5019114;28;20489;-60
2023/12/30 04:54:05;;;;;;;1.70;0.80;;;8.70;99.90;;;;;;5020512;28;20026;-60
2023/12/30 04:56:31;;;;;;;2.80;1.10;;;8.70;99.90;;;;;;5019109;28;20034;-63
2023/12/30 04:58:58;;;;;;;2.33;0.82;;;8.70;99.90;;;;;;5020068;28;20121;-61
2023/12/30 05:01:23;;;;;;;4.07;0.80;;;8.70;99.90;;;;;;5018253;28;20065;-63
2023/12/30 05:03:50;;;;;;;3.83;0.77;;;8.70;99.90;;;;;;5022963;28;20041;-61
2023/12/30 05:06:23;;;;;;;1.00;0.70;;;8.80;99.90;;;;;;5020419;28;20026;-62
2023/12/30 05:08:49;;;;;;;5.88;1.27;;;8.80;99.90;;;;;;5021292;28;20037;-62
2023/12/30 05:11:15;;;;;;;4.57;0.70;;;8.70;99.90;;;;;;5023616;28;20040;-61
2023/12/30 05:13:42;;;;;;;5.22;0.98;;;8.60;99.90;;;;;;5024579;28;20410;-61
2023/12/30 05:16:07;;;;;;;1.52;0.88;;;8.60;99.90;;;;;;5023864;28;20108;-62
2023/12/30 05:18:33;;;;;;;4.10;0.90;;;8.50;99.90;;;;;;5021918;28;20504;-62
2023/12/30 05:20:59;;;;;;;2.47;0.80;;;8.40;99.90;;;;;;5022825;28;20033;-61
2023/12/30 05:23:24;;;;;;;3.63;0.90;;;8.40;99.90;;;;;;5020824;28;20051;-62
2023/12/30 05:25:50;;;;;;;2.67;0.80;;;8.30;99.90;;;;;;5021171;28;20521;-63
2023/12/30 05:28:15;;;;;;;0.75;0.73;;;8.30;99.90;;;;;;5023949;28;20026;-59
2023/12/30 05:30:41;;;;;;;1.83;0.85;;;8.30;99.90;;;;;;5020740;28;20104;-61
2023/12/30 05:33:07;;;;;;;1.55;0.80;;;8.30;99.90;;;;;;5019026;28;20022;-62
2023/12/30 05:35:35;;;;;;;3.55;0.80;;;8.30;99.90;;;;;;5022821;28;20518;-64
2023/12/30 05:38:01;;;;;;;2.05;0.70;;;8.30;99.90;;;;;;5021723;28;20045;-61
2023/12/30 05:40:26;;;;;;;1.75;0.80;;;8.20;99.90;;;;;;5019114;28;20030;-63
2023/12/30 05:42:52;;;;;;;2.58;0.90;;;8.30;99.90;;;;;;5021576;28;20033;-61
2023/12/30 05:45:18;;;;;;;2.88;0.80;;;8.20;99.90;;;;;;5020828;28;20072;-62
2023/12/30 05:47:43;;;;;;;1.02;0.85;;;8.20;99.90;;;;;;5021772;28;20079;-61
2023/12/30 05:50:11;;;;;;;1.35;0.90;;;8.20;99.90;;;;;;5021793;28;20517;-62
2023/12/30 05:52:37;;;;;;;2.90;1.00;;;8.20;99.90;;;;;;5023085;28;20029;-62
2023/12/30 05:55:03;;;;;;;2.22;0.80;;;8.20;99.90;;;;;;5024997;28;20514;-63
2023/12/30 05:57:28;;;;;;;1.08;0.50;;;8.20;99.90;;;;;;5021752;28;20037;-62
2023/12/30 05:59:54;;;;;;;2.28;0.68;;;8.20;99.90;;;;;;5020967;28;20041;-60
2023/12/30 06:02:20;;;;;;;1.10;0.80;;;8.20;99.90;;;;;;5019590;28;20109;-62
2023/12/30 06:04:46;;;;;;;2.67;1.00;;;8.10;99.90;;;;;;5021857;28;20053;-61
2023/12/30 06:07:12;;;;;;;2.15;0.75;;;8.10;99.90;;;;;;5023372;28;20091;-61
2023/12/30 06:09:37;;;;;;;3.80;0.93;;;8.10;99.90;;;;;;5021716;28;20030;-63
2023/12/30 06:12:03;;;;;;;2.05;1.25;;;8.10;99.90;;;;;;5021980;28;20080;-61
2023/12/30 06:14:29;;;;;;;3.22;1.15;;;8.20;99.90;;;;;;5020377;28;20552;-61
2023/12/30 06:16:54;;;;;;;2.58;0.90;;;8.20;99.90;;;;;;5025304;28;20437;-61
2023/12/30 06:19:20;;;;;;;3.65;1.10;;;8.30;99.90;;;;;;5017810;28;20022;-62
2023/12/30 06:21:46;;;;;;;2.60;0.75;;;8.30;99.90;;;;;;5022744;28;20029;-62
2023/12/30 06:24:12;;;;;;;14.35;2.30;;;8.30;99.90;;;;;;5020229;28;20068;-62
2023/12/30 06:26:40;;;;;;;4.85;1.10;;;8.30;99.90;;;;;;5018597;28;20026;-61
2023/12/30 06:29:07;;;;;;;8.23;1.00;;;8.30;99.90;;;;;;5020484;28;20054;-63
2023/12/30 06:31:33;;;;;;;3.03;1.05;;;8.40;99.90;;;;;;5018645;28;20017;-62
2023/12/30 06:33:59;;;;;;;1.80;0.80;;;8.40;99.90;;;;;;5020478;28;20478;-61
2023/12/30 06:36:24;;;;;;;3.13;1.00;;;8.40;99.90;;;;;;5018559;28;20022;-63
2023/12/30 06:38:50;;;;;;;2.90;0.75;;;8.40;99.90;;;;;;5020922;28;20033;-61
2023/12/30 06:41:19;;;;;;;2.65;1.13;;;8.40;99.90;;;;;;5023148;28;20101;-63
2023/12/30 06:43:45;;;;;;;2.15;0.93;;;8.40;99.90;;;;;;5017975;28;20037;-62
2023/12/30 06:46:11;;;;;;;1.48;0.80;;;8.40;99.90;;;;;;5020893;28;20108;-62
2023/12/30 06:48:37;;;;;;;4.13;1.38;;;8.40;99.90;;;;;;5017034;28;20030;-63
2023/12/30 06:51:02;;;;;;;2.17;0.95;;;8.40;99.90;;;;;;5004680;28;20505;-63
2023/12/30 06:53:31;;;;;;;3.85;0.80;;;8.40;99.90;;;;;;5015920;28;20631;-61
2023/12/30 06:56:03;;;;;;;3.95;0.98;;;8.40;99.90;;;;;;5018344;28;20045;-61
2023/12/30 06:58:29;;;;;;;1.70;1.00;;;8.30;99.90;;;;;;5021644;28;20045;-63
2023/12/30 07:00:55;;;;;;;3.72;0.80;;;8.30;99.90;;;;;;5019588;28;20390;-60
2023/12/30 07:03:21;;;;;;;4.10;1.10;;;8.30;99.90;;;;;;5019917;28;20025;-65
2023/12/30 07:05:47;;;;;;;4.93;0.88;;;8.30;99.90;;;;;;5016216;28;20044;-61
2023/12/30 07:08:12;;;;;;;1.80;0.88;;;8.30;99.90;;;;;;5020804;28;20026;-62
2023/12/30 07:10:39;;;;;;;2.05;0.82;;;8.30;99.90;;;;;;5020234;28;20057;-62
2023/12/30 07:13:06;;;;;;;1.98;0.80;;;8.20;99.90;;;;;;5020083;28;20092;-62
2023/12/30 07:15:31;;;;;;;2.25;1.13;;;8.20;99.90;;;;;;5019703;28;20518;-62
2023/12/30 07:17:57;;;;;;;1.83;0.73;;;8.20;99.90;;;;;;5021450;28;20034;-61
2023/12/30 07:20:23;;;;;;;2.42;0.80;;;8.10;99.90;;;;;;5019859;28;20583;-61
2023/12/30 07:22:49;;;;;;;1.40;1.10;;;8.10;99.90;;;;;;5018384;28;20030;-61
2023/12/30 07:25:14;;;;;;;3.20;1.00;;;8.10;99.90;;;;;;5018047;28;20026;-61
2023/12/30 07:27:40;;;;;;;2.28;1.10;;;8.00;99.90;;;;;;5020732;28;20033;-63
2023/12/30 07:30:06;;;;;;;2.63;0.95;;;8.00;99.90;;;;;;5020227;28;20482;-62
2023/12/30 07:32:32;;;;;;;1.63;0.90;;;8.00;99.90;;;;;;5022419;28;20456;-62
2023/12/30 07:34:58;;;;;;;4.63;1.27;;;8.00;99.90;;;;;;5023479;28;20130;-60
2023/12/30 07:37:24;;;;;;;1.95;1.05;;;8.00;99.90;;;;;;5021595;28;20733;-61
2023/12/30 07:39:50;;;;;;;2.30;1.00;;;8.00;99.90;;;;;;5021585;28;20029;-60
2023/12/30 07:42:18;;;;;;;2.47;1.00;;;8.00;99.90;;;;;;5018329;28;20494;-62
2023/12/30 07:44:44;;;;;;;4.53;1.25;;;8.00;99.90;;;;;;5020317;28;20112;-63
2023/12/30 07:47:10;;;;;;;2.92;1.00;;;8.00;99.90;;;;;;5018956;28;20089;-62
2023/12/30 07:49:36;;;;;;;1.65;0.90;;;8.10;99.90;;;;;;5022607;28;20533;-62
2023/12/30 07:52:02;;;;;;;2.60;1.08;;;8.10;99.90;;;;;;5020462;28;20068;-61
2023/12/30 07:54:27;;;;;;;3.75;0.98;;;8.00;99.90;;;;;;5019939;28;20030;-62
2023/12/30 07:56:53;;;;;;;3.15;1.17;;;8.00;99.90;;;;;;5018318;28;20030;-62
2023/12/30 07:59:19;;;;;;;3.60;1.30;;;8.00;99.90;;;;;;5021090;28;20030;-63
2023/12/30 08:01:45;;;;;;;2.50;1.00;;;8.00;99.90;;;;;;5024685;28;20521;-61
2023/12/30 08:04:11;;;;;;;2.53;1.55;;;7.90;99.90;;;;;;5019449;28;20436;-63
2023/12/30 08:06:39;;;;;;;3.35;1.25;;;7.90;99.90;;;;;;5017257;28;20038;-62
2023/12/30 08:09:05;;;;;;;1.50;0.88;;;7.90;99.90;;;;;;5019214;28;20137;-63
2023/12/30 08:11:33;;;;;;;4.70;1.23;;;7.90;99.90;;;;;;5022194;28;20116;-61
2023/12/30 08:13:58;;;;;;;2.00;0.90;;;8.00;99.90;;;;;;5019261;28;20049;-60
2023/12/30 08:16:24;;;;;;;1.27;0.90;;;8.10;99.90;;;;;;5018256;28;20034;-62
2023/12/30 08:18:50;;;;;;;1.17;0.80;;;8.10;99.90;;;;;;5021316;28;20030;-62
2023/12/30 08:21:15;;;;;;;2.28;1.00;;;8.20;99.90;;;;;;5024054;28;20167;-62
2023/12/30 08:23:41;;;;;;;2.50;0.93;;;8.20;99.90;;;;;;5022806;28;20056;-61
2023/12/30 08:26:06;;;;;;;2.55;1.65;;;8.20;99.90;;;;;;5021299;28;20112;-62
2023/12/30 08:28:32;;;;;;;3.00;1.25;;;8.20;99.90;;;;;;5016712;28;20041;-64
2023/12/30 08:30:59;;;;;;;4.68;1.25;;;8.20;99.90;;;;;;5006479;28;20032;-64
2023/12/30 08:33:26;;;;;;;2.88;0.90;;;8.20;99.90;;;;;;5017334;28;20036;-62
2023/12/30 08:35:51;;;;;;;1.80;0.75;;;8.20;99.90;;;;;;5020706;28;20577;-62
2023/12/30 08:38:17;;;;;;;2.03;0.88;;;8.20;99.90;;;;;;5019783;28;20116;-63
2023/12/30 08:40:43;;;;;;;1.58;0.82;;;8.30;99.90;;;;;;5021194;28;20109;-63
2023/12/30 08:43:10;;;;;;;2.17;0.70;;;8.30;99.90;;;;;;5019691;28;20049;-63
2023/12/30 08:45:36;;;;;;;2.10;0.77;;;8.30;99.90;;;;;;5021593;28;20037;-64
2023/12/30 08:48:03;;;;;;;4.43;2.15;;;8.30;99.90;;;;;;5020622;28;20045;-63
2023/12/30 08:50:30;;;;;;;2.13;0.88;;;8.30;99.90;;;;;;5018544;28;20025;-63
2023/12/30 08:52:56;;;;;;;1.52;0.63;;;8.30;99.90;;;;;;5015416;28;20445;-63
2023/12/30 08:55:21;;;;;;;2.28;0.80;;;8.10;99.90;;;;;;5023223;28;20061;-63
2023/12/30 08:57:47;;;;;;;2.33;0.80;;;8.00;99.90;;;;;;5018091;28;20072;-63
2023/12/30 09:00:14;;;;;;;1.52;0.80;;;7.90;99.90;;;;;;5018789;28;20144;-65
2023/12/30 09:02:46;;;;;;;4.20;0.65;;;7.70;99.90;;;;;;5019820;28;20026;-64
2023/12/30 09:05:16;;;;;;;1.02;0.43;;;7.60;99.90;;;;;;5021472;28;20045;-64
2023/12/30 09:07:42;;;;;;;1.80;0.65;;;7.50;99.90;;;;;;5021314;28;20048;-63
2023/12/30 09:10:08;;;;;;;1.45;0.50;;;7.40;99.90;;;;;;5022524;28;20029;-64
2023/12/30 09:12:33;;;;;;;1.88;0.70;;;7.40;99.90;;;;;;5024105;28;20021;-64
2023/12/30 09:14:59;;;;;;;2.15;0.57;;;7.30;99.90;;;;;;5018507;28;20025;-63
2023/12/30 09:17:24;;;;;;;0.70;0.32;;;7.30;99.90;;;;;;5021675;28;20054;-64
2023/12/30 09:19:50;;;;;;;0.80;0.50;;;7.30;99.90;;;;;;5022305;28;20033;-64
2023/12/30 09:22:16;;;;;;;4.47;0.70;;;7.30;99.90;;;;;;5021134;28;20046;-62
2023/12/30 09:24:41;;;;;;;2.20;0.95;;;7.30;99.90;;;;;;5019850;28;20022;-65
2023/12/30 09:27:08;;;;;;;1.92;0.80;;;7.30;99.90;;;;;;5022154;28;20440;-65
2023/12/30 09:29:34;;;;;;;0.95;0.60;;;7.30;99.90;;;;;;5020402;28;20677;-64
2023/12/30 09:31:59;;;;;;;1.00;0.70;;;7.30;99.90;;;;;;5021375;28;20041;-65
2023/12/30 09:34:25;;;;;;;2.72;1.08;;;7.20;99.90;;;;;;5021823;28;20025;-63
2023/12/30 09:36:50;;;;;;;1.40;0.70;;;7.20;99.90;;;;;;5022251;28;20054;-64
2023/12/30 09:39:16;;;;;;;0.75;0.52;;;7.20;99.90;;;;;;5018663;28;20113;-64
2023/12/30 09:41:42;;;;;;;4.13;0.63;;;7.20;99.90;;;;;;5020975;28;20088;-66
2023/12/30 09:44:09;;;;;;;0.70;0.70;;;7.20;99.90;;;;;;5020408;28;20049;-64
2023/12/30 09:46:36;;;;;;;0.65;0.65;;;7.20;99.90;;;;;;5019382;28;20405;-64
2023/12/30 09:49:03;;;;;;;1.75;0.90;;;7.20;99.90;;;;;;5025342;28;20021;-65
2023/12/30 09:51:31;;;;;;;1.25;0.77;;;7.30;99.90;;;;;;5024262;28;20114;-65
2023/12/30 09:53:57;;;;;;;1.90;0.57;;;7.30;99.90;;;;;;5021245;28;20026;-65
2023/12/30 09:56:24;;;;;;;0.70;0.70;;;7.30;99.90;;;;;;5023027;28;20034;-65
2023/12/30 09:58:51;;;;;;;1.75;1.00;;;7.30;99.90;;;;;;5024714;28;20022;-64
2023/12/30 10:01:17;;;;;;;1.38;0.63;;;7.30;99.90;;;;;;5026525;28;20017;-64
2023/12/30 10:03:44;;;;;;;1.13;0.50;;;7.30;99.90;;;;;;5023609;28;20028;-65
2023/12/30 10:06:12;;;;;;;1.30;0.98;;;7.30;99.90;;;;;;5025452;28;20044;-65
2023/12/30 10:08:38;;;;;;;2.03;0.70;;;7.30;99.90;;;;;;5023747;28;20030;-65
2023/12/30 10:11:10;;;;;;;4.97;0.95;;;7.40;99.90;;;;;;5024838;28;20057;-64
2023/12/30 10:13:38;;;;;;;1.85;0.88;;;7.50;99.90;;;;;;5022352;28;20041;-65
2023/12/30 10:16:06;;;;;;;2.00;0.90;;;7.70;99.90;;;;;;5021737;28;20018;-65
2023/12/30 10:18:32;;;;;;;1.63;0.80;;;7.90;99.90;;;;;;5021121;28;20505;-65
2023/12/30 10:20:58;;;;;;;1.20;0.82;;;8.00;99.90;;;;;;5022073;28;20046;-64
2023/12/30 10:23:27;;;;;;;3.55;0.98;;;8.20;99.90;;;;;;5024311;28;20067;-64
2023/12/30 10:25:53;;;;;;;2.22;0.80;;;8.30;99.90;;;;;;5022954;28;20048;-64
2023/12/30 10:28:19;;;;;;;3.33;1.20;;;8.40;99.90;;;;;;5019133;28;20025;-65
2023/12/30 10:30:47;;;;;;;3.42;0.80;;;8.60;99.90;;;;;;5017311;28;20077;-64
2023/12/30 10:33:14;;;;;;;1.10;0.70;;;8.70;99.90;;;;;;5023935;28;20026;-64
2023/12/30 10:35:42;;;;;;;3.05;1.10;;;8.70;99.90;;;;;;5020947;28;20815;-65
2023/12/30 10:38:09;;;;;;;2.30;0.77;;;8.80;99.90;;;;;;5023043;28;20574;-65
2023/12/30 10:40:34;;;;;;;3.50;1.00;;;8.90;99.90;;;;;;5021235;28;20029;-64
2023/12/30 10:43:01;;;;;;;5.28;1.00;;;8.90;99.90;;;;;;5016954;28;20022;-65
2023/12/30 10:45:27;;;;;;;4.35;0.82;;;9.10;99.90;;;;;;5019395;28;20036;-64
2023/12/30 10:47:54;;;;;;;2.78;0.80;;;9.20;99.90;;;;;;5020793;28;20375;-65
2023/12/30 10:50:22;;;;;;;1.48;0.82;;;9.20;99.90;;;;;;5018718;28;20602;-66
2023/12/30 10:53:10;;;;;;;4.10;1.05;;;9.30;99.90;;;;;;5018922;28;20054;-63
2023/12/30 10:55:40;;;;;;;2.92;0.75;;;9.40;99.90;;;;;;5022225;28;20062;-65
2023/12/30 10:58:16;;;;;;;2.08;0.80;;;9.40;99.90;;;;;;5022795;28;20105;-64
2023/12/30 11:00:43;;;;;;;2.15;1.00;;;9.30;99.90;;;;;;5016366;28;20514;-63
2023/12/30 11:03:09;;;;;;;6.22;1.02;;;9.40;99.90;;;;;;5015932;28;20116;-66
2023/12/30 11:05:54;;;;;;;2.05;0.70;;;9.40;99.90;;;;;;5017869;28;20509;-64
2023/12/30 11:08:20;;;;;;;3.95;0.77;;;9.40;99.90;;;;;;5016936;28;20030;-64
2023/12/30 11:10:46;;;;;;;0.88;0.70;;;9.50;99.90;;;;;;5019812;28;20033;-64
2023/12/30 11:13:12;;;;;;;1.40;0.63;;;9.50;99.90;;;;;;5021114;28;20107;-64
2023/12/30 11:15:41;;;;;;;3.72;0.90;;;9.60;99.90;;;;;;5022430;28;20060;-65
2023/12/30 11:18:12;;;;;;;5.07;1.80;;;9.80;99.90;;;;;;5020600;28;20513;-64
2023/12/30 11:20:48;;;;;;;4.07;0.80;;;10.10;99.90;;;;;;5015380;28;20653;-65
2023/12/30 11:23:15;;;;;;;4.97;0.80;;;10.30;99.90;;;;;;5018799;28;20018;-65
2023/12/30 11:25:45;;;;;;;2.35;0.90;;;10.50;99.90;;;;;;5014949;28;20502;-64
2023/12/30 11:28:18;;;;;;;4.32;1.33;;;10.60;99.90;;;;;;5019397;28;20025;-63
2023/12/30 11:30:45;;;;;;;2.08;0.90;;;10.60;99.90;;;;;;5020069;28;20041;-65
2023/12/30 11:33:12;;;;;;;1.80;0.80;;;10.60;99.90;;;;;;5016822;28;20053;-64
2023/12/30 11:35:39;;;;;;;6.15;1.40;;;10.60;99.90;;;;;;5015766;28;20026;-65
2023/12/30 11:38:12;;;;;;;3.92;1.02;;;10.70;99.90;;;;;;5017667;28;20034;-64
2023/12/30 11:40:42;;;;;;;3.58;1.08;;;10.70;99.90;;;;;;5022390;28;20049;-64
2023/12/30 11:43:10;;;;;;;3.75;2.10;;;10.70;99.90;;;;;;5018309;28;20030;-65
2023/12/30 11:45:36;;;;;;;4.72;0.70;;;10.40;99.90;;;;;;5018165;28;20029;-63
2023/12/30 11:48:02;;;;;;;0.82;0.63;;;10.30;99.90;;;;;;5018485;28;20652;-64
2023/12/30 11:50:28;;;;;;;1.88;1.02;;;10.10;99.90;;;;;;5018707;28;20022;-66
2023/12/30 11:52:53;;;;;;;4.20;0.82;;;10.00;99.90;;;;;;5020654;28;20033;-64
2023/12/30 11:55:19;;;;;;;5.28;1.00;;;10.00;99.90;;;;;;5019895;28;20033;-63
2023/12/30 11:57:46;;;;;;;3.63;1.23;;;10.00;99.90;;;;;;5021503;28;20026;-65
2023/12/30 12:00:13;;;;;;;3.33;1.10;;;9.90;99.90;;;;;;5017984;28;20029;-63
2023/12/30 12:02:39;;;;;;;5.40;0.98;;;9.90;99.90;;;;;;5019403;28;20029;-65
2023/12/30 12:05:06;;;;;;;3.45;1.35;;;9.80;99.90;;;;;;5019726;28;20559;-65
2023/12/30 12:07:32;;;;;;;3.20;1.20;;;9.80;99.90;;;;;;5015684;28;20033;-65
2023/12/30 12:09:58;;;;;;;3.83;1.00;;;9.80;99.90;;;;;;5019437;28;20040;-64
2023/12/30 12:12:24;;;;;;;4.80;1.15;;;9.80;99.90;;;;;;5017688;28;20030;-63
2023/12/30 12:14:50;;;;;;;6.68;1.23;;;9.70;99.90;;;;;;5018576;28;20030;-64
2023/12/30 12:17:18;;;;;;;2.83;1.10;;;9.70;99.90;;;;;;5020969;28;20030;-64
2023/12/30 12:19:45;;;;;;;2.25;1.10;;;9.60;99.90;;;;;;5016211;28;20022;-63
2023/12/30 12:22:13;;;;;;;1.75;1.00;;;9.60;99.90;;;;;;5015678;28;20026;-63
2023/12/30 12:24:39;;;;;;;3.03;0.85;;;9.50;99.90;;;;;;5016496;28;20608;-63
2023/12/30 12:27:05;;;;;;;3.45;1.00;;;9.50;99.90;;;;;;5020105;28;20038;-64
2023/12/30 12:29:31;;;;;;;2.80;1.08;;;9.50;99.90;;;;;;5021381;28;20032;-65
2023/12/30 12:31:57;;;;;;;4.63;1.30;;;9.60;99.90;;;;;;5019373;28;20091;-63
2023/12/30 12:34:24;;;;;;;2.50;0.88;;;9.60;99.90;;;;;;5019422;28;20435;-63
2023/12/30 12:36:51;;;;;;;3.83;1.00;;;9.60;99.90;;;;;;5018058;28;20037;-63
2023/12/30 12:39:17;;;;;;;2.40;0.90;;;9.60;99.90;;;;;;5019318;28;20021;-63
2023/12/30 12:41:44;;;;;;;6.20;2.20;;;9.60;99.90;;;;;;5017871;28;20101;-64
2023/12/30 12:44:09;;;;;;;3.92;1.20;;;9.60;99.90;;;;;;5018173;28;20111;-65
2023/12/30 12:46:35;;;;;;;1.85;0.90;;;9.60;99.90;;;;;;5018356;28;20491;-64
2023/12/30 12:49:01;;;;;;;2.15;1.00;;;9.60;99.90;;;;;;5020961;28;20028;-63
2023/12/30 12:51:28;;;;;;;3.10;1.00;;;9.60;99.90;;;;;;5018379;28;20036;-63